Etusivu
METAR-TAF:

METAR-TAF

Lentoasemat :

Havanna, Kuuba

Leveyspiiri: 22-59N, Pituuspiiri: 082-24W, korkeus merenpinnasta: 59 m

Tämänhetkinen sää

Tämä raportti tehtiin 57 minuuttia sitten, kello 09.55 UTC
Tuuli 1 kn eri suunnista
Lämpötila 13°C
Kosteus 100%
Ilmanpaine 1019 hPa
Näkyvyys: 9000 m
selkeää

METAR: MUHA 060955Z VRB01KT 9000 SKC 13/13 Q1019

Aika: 05:52 (10:52 UTC)

Sääennuste

Tämä raportti tehtiin 5 tuntia ja 52 minuuttia sitten, kello 05.00 UTC
Ennuste voimassa 06. päivästä klo 06 UTC - 07. päivään klo 06 UTC
Tuuli 5 kn koillisesta
Näkyvyys: 9000 m
Hajanaisia pilviä 3000 ft:n korkeudessa

TAF: MUHA 060500Z 0606/0706 04005KT 9000 SCT030

Säähavainnot ja -ennusteet yli 4000 lentoasemalta (METAR- ja TAF-raportit).

Käytössä olevat sääasemat on merkitty karttaan keltaisilla ja punaisilla pisteillä.

Aseta hiiri pisteen päälle nähdäksesi sääaseman nimen.

Klikkaa sitten nähdäksesi säähavainnot ja -ennusteet.

Kartan vaihtaminen: klikkaa mustalla rastilla varustettuja vihreitä pisteitä, niin voit zoomata sisään; viivalla varustettua vihreää pistettä, niin voit zoomata ulos tai vihreitä nuolia, niin pääset viereisille kartoille.


METAR-TAF: